sensor_id;sensor_type;location;lat;lon;timestamp;temperature;humidity
11264;DHT22;5689;48.798;9.070;2022-07-12T00:02:05;16.00;99.90
11264;DHT22;5689;48.798;9.070;2022-07-12T00:04:33;15.90;99.90
11264;DHT22;5689;48.798;9.070;2022-07-12T00:07:01;15.80;99.90
11264;DHT22;5689;48.798;9.070;2022-07-12T00:09:29;15.70;99.90
11264;DHT22;5689;48.798;9.070;2022-07-12T00:11:57;15.90;99.90
11264;DHT22;5689;48.798;9.070;2022-07-12T00:14:25;15.80;99.90
11264;DHT22;5689;48.798;9.070;2022-07-12T00:16:53;15.80;99.90
11264;DHT22;5689;48.798;9.070;2022-07-12T00:19:22;15.70;99.90
11264;DHT22;5689;48.798;9.070;2022-07-12T00:21:50;15.80;99.90
11264;DHT22;5689;48.798;9.070;2022-07-12T00:24:18;15.70;99.90
11264;DHT22;5689;48.798;9.070;2022-07-12T00:26:46;15.60;99.90
11264;DHT22;5689;48.798;9.070;2022-07-12T00:29:14;15.60;99.90
11264;DHT22;5689;48.798;9.070;2022-07-12T00:31:42;15.50;99.90
11264;DHT22;5689;48.798;9.070;2022-07-12T00:34:10;15.40;99.90
11264;DHT22;5689;48.798;9.070;2022-07-12T00:36:40;15.30;99.90
11264;DHT22;5689;48.798;9.070;2022-07-12T00:39:08;15.40;99.90
11264;DHT22;5689;48.798;9.070;2022-07-12T00:41:36;15.40;99.90
11264;DHT22;5689;48.798;9.070;2022-07-12T00:44:04;15.40;99.90
11264;DHT22;5689;48.798;9.070;2022-07-12T00:46:32;15.40;99.90
11264;DHT22;5689;48.798;9.070;2022-07-12T00:49:01;15.40;99.90
11264;DHT22;5689;48.798;9.070;2022-07-12T00:51:29;15.40;99.90
11264;DHT22;5689;48.798;9.070;2022-07-12T00:53:59;15.40;99.90
11264;DHT22;5689;48.798;9.070;2022-07-12T00:56:27;15.40;99.90
11264;DHT22;5689;48.798;9.070;2022-07-12T00:58:55;15.40;99.90
11264;DHT22;5689;48.798;9.070;2022-07-12T01:01:23;15.40;99.90
11264;DHT22;5689;48.798;9.070;2022-07-12T01:03:52;15.30;99.90
11264;DHT22;5689;48.798;9.070;2022-07-12T01:06:20;15.20;99.90
11264;DHT22;5689;48.798;9.070;2022-07-12T01:08:49;15.20;99.90
11264;DHT22;5689;48.798;9.070;2022-07-12T01:11:18;15.00;99.90
11264;DHT22;5689;48.798;9.070;2022-07-12T01:13:48;15.20;99.90
11264;DHT22;5689;48.798;9.070;2022-07-12T01:16:17;15.30;99.90
11264;DHT22;5689;48.798;9.070;2022-07-12T01:18:46;15.20;99.90
11264;DHT22;5689;48.798;9.070;2022-07-12T01:21:18;15.20;99.90
11264;DHT22;5689;48.798;9.070;2022-07-12T01:23:49;15.10;99.90
11264;DHT22;5689;48.798;9.070;2022-07-12T01:26:18;15.00;99.90
11264;DHT22;5689;48.798;9.070;2022-07-12T01:28:47;15.00;99.90
11264;DHT22;5689;48.798;9.070;2022-07-12T01:31:15;15.00;99.90
11264;DHT22;5689;48.798;9.070;2022-07-12T01:33:43;15.20;99.90
11264;DHT22;5689;48.798;9.070;2022-07-12T01:36:11;15.10;99.90
11264;DHT22;5689;48.798;9.070;2022-07-12T01:38:39;15.00;99.90
11264;DHT22;5689;48.798;9.070;2022-07-12T01:41:09;15.00;99.90
11264;DHT22;5689;48.798;9.070;2022-07-12T01:43:37;14.90;99.90
11264;DHT22;5689;48.798;9.070;2022-07-12T01:46:05;14.80;99.90
11264;DHT22;5689;48.798;9.070;2022-07-12T01:48:33;14.70;99.90
11264;DHT22;5689;48.798;9.070;2022-07-12T01:51:01;14.70;99.90
11264;DHT22;5689;48.798;9.070;2022-07-12T01:53:29;14.70;99.90
11264;DHT22;5689;48.798;9.070;2022-07-12T01:55:57;14.60;99.90
11264;DHT22;5689;48.798;9.070;2022-07-12T01:58:26;14.50;99.90
11264;DHT22;5689;48.798;9.070;2022-07-12T02:00:54;14.50;99.90
11264;DHT22;5689;48.798;9.070;2022-07-12T02:03:22;14.50;99.90
11264;DHT22;5689;48.798;9.070;2022-07-12T02:05:50;14.60;99.90
11264;DHT22;5689;48.798;9.070;2022-07-12T02:08:18;14.60;99.90
11264;DHT22;5689;48.798;9.070;2022-07-12T02:10:46;14.50;99.90
11264;DHT22;5689;48.798;9.070;2022-07-12T02:13:14;14.60;99.90
11264;DHT22;5689;48.798;9.070;2022-07-12T02:15:44;14.60;99.90
11264;DHT22;5689;48.798;9.070;2022-07-12T02:18:12;14.70;99.90
11264;DHT22;5689;48.798;9.070;2022-07-12T02:20:40;14.60;99.90
11264;DHT22;5689;48.798;9.070;2022-07-12T02:23:08;14.70;99.90
11264;DHT22;5689;48.798;9.070;2022-07-12T02:25:36;14.50;99.90
11264;DHT22;5689;48.798;9.070;2022-07-12T02:28:04;14.40;99.90
11264;DHT22;5689;48.798;9.070;2022-07-12T02:30:32;14.30;99.90
11264;DHT22;5689;48.798;9.070;2022-07-12T02:33:01;14.20;99.90
11264;DHT22;5689;48.798;9.070;2022-07-12T02:35:29;14.30;99.90
11264;DHT22;5689;48.798;9.070;2022-07-12T02:37:57;14.30;99.90
11264;DHT22;5689;48.798;9.070;2022-07-12T02:40:25;14.30;99.90
11264;DHT22;5689;48.798;9.070;2022-07-12T02:43:11;14.20;99.90
11264;DHT22;5689;48.798;9.070;2022-07-12T02:45:39;14.00;99.90
11264;DHT22;5689;48.798;9.070;2022-07-12T02:48:08;14.00;99.90
11264;DHT22;5689;48.798;9.070;2022-07-12T02:50:39;14.20;99.90
11264;DHT22;5689;48.798;9.070;2022-07-12T02:53:07;14.10;99.90
11264;DHT22;5689;48.798;9.070;2022-07-12T02:55:36;14.10;99.90
11264;DHT22;5689;48.798;9.070;2022-07-12T02:58:04;14.00;99.90
11264;DHT22;5689;48.798;9.070;2022-07-12T03:00:32;14.00;99.90
11264;DHT22;5689;48.798;9.070;2022-07-12T03:03:01;14.10;99.90
11264;DHT22;5689;48.798;9.070;2022-07-12T03:05:30;14.10;99.90
11264;DHT22;5689;48.798;9.070;2022-07-12T03:07:58;14.00;99.90
11264;DHT22;5689;48.798;9.070;2022-07-12T03:10:26;13.90;99.90
11264;DHT22;5689;48.798;9.070;2022-07-12T03:12:54;14.00;99.90
11264;DHT22;5689;48.798;9.070;2022-07-12T03:15:22;14.00;99.90
11264;DHT22;5689;48.798;9.070;2022-07-12T03:17:50;14.00;99.90
11264;DHT22;5689;48.798;9.070;2022-07-12T03:20:18;14.00;99.90
11264;DHT22;5689;48.798;9.070;2022-07-12T03:22:48;14.00;99.90
11264;DHT22;5689;48.798;9.070;2022-07-12T03:25:19;13.90;99.90
11264;DHT22;5689;48.798;9.070;2022-07-12T03:27:47;14.10;99.90
11264;DHT22;5689;48.798;9.070;2022-07-12T03:30:15;14.00;99.90
11264;DHT22;5689;48.798;9.070;2022-07-12T03:32:43;13.90;99.90
11264;DHT22;5689;48.798;9.070;2022-07-12T03:35:11;13.90;99.90
11264;DHT22;5689;48.798;9.070;2022-07-12T03:37:42;13.90;99.90
11264;DHT22;5689;48.798;9.070;2022-07-12T03:40:13;13.90;99.90
11264;DHT22;5689;48.798;9.070;2022-07-12T03:42:41;14.00;99.90
11264;DHT22;5689;48.798;9.070;2022-07-12T03:45:10;14.00;99.90
11264;DHT22;5689;48.798;9.070;2022-07-12T03:47:39;14.00;99.90
11264;DHT22;5689;48.798;9.070;2022-07-12T03:50:09;14.00;99.90
11264;DHT22;5689;48.798;9.070;2022-07-12T03:52:39;14.10;99.90
11264;DHT22;5689;48.798;9.070;2022-07-12T03:55:08;14.30;99.90
11264;DHT22;5689;48.798;9.070;2022-07-12T03:57:38;14.10;99.90
11264;DHT22;5689;48.798;9.070;2022-07-12T04:00:08;14.20;99.90
11264;DHT22;5689;48.798;9.070;2022-07-12T04:02:37;14.10;99.90
11264;DHT22;5689;48.798;9.070;2022-07-12T04:05:07;14.10;99.90
11264;DHT22;5689;48.798;9.070;2022-07-12T04:07:36;14.00;99.90
11264;DHT22;5689;48.798;9.070;2022-07-12T04:10:05;13.90;99.90
11264;DHT22;5689;48.798;9.070;2022-07-12T04:12:33;13.90;99.90
11264;DHT22;5689;48.798;9.070;2022-07-12T04:15:03;14.00;99.90
11264;DHT22;5689;48.798;9.070;2022-07-12T04:17:31;14.10;99.90
11264;DHT22;5689;48.798;9.070;2022-07-12T04:19:59;14.00;99.90
11264;DHT22;5689;48.798;9.070;2022-07-12T04:22:27;14.10;99.90
11264;DHT22;5689;48.798;9.070;2022-07-12T04:24:55;14.20;99.90
11264;DHT22;5689;48.798;9.070;2022-07-12T04:27:23;14.20;99.90
11264;DHT22;5689;48.798;9.070;2022-07-12T04:29:53;14.30;99.90
11264;DHT22;5689;48.798;9.070;2022-07-12T04:32:24;14.40;99.90
11264;DHT22;5689;48.798;9.070;2022-07-12T04:34:52;14.50;99.90
11264;DHT22;5689;48.798;9.070;2022-07-12T04:37:20;14.50;99.90
11264;DHT22;5689;48.798;9.070;2022-07-12T04:39:48;14.50;99.90
11264;DHT22;5689;48.798;9.070;2022-07-12T04:42:16;14.60;99.90
11264;DHT22;5689;48.798;9.070;2022-07-12T04:44:44;14.70;99.90
11264;DHT22;5689;48.798;9.070;2022-07-12T04:47:12;14.70;99.90
11264;DHT22;5689;48.798;9.070;2022-07-12T04:49:41;14.90;99.90
11264;DHT22;5689;48.798;9.070;2022-07-12T04:52:09;14.90;99.90
11264;DHT22;5689;48.798;9.070;2022-07-12T04:54:37;14.90;99.90
11264;DHT22;5689;48.798;9.070;2022-07-12T04:57:05;15.00;99.90
11264;DHT22;5689;48.798;9.070;2022-07-12T04:59:33;15.10;99.90
11264;DHT22;5689;48.798;9.070;2022-07-12T05:02:01;15.10;99.90
11264;DHT22;5689;48.798;9.070;2022-07-12T05:04:31;15.10;99.90
11264;DHT22;5689;48.798;9.070;2022-07-12T05:07:01;15.10;99.90
11264;DHT22;5689;48.798;9.070;2022-07-12T05:09:29;15.20;99.90
11264;DHT22;5689;48.798;9.070;2022-07-12T05:11:57;15.60;99.90
11264;DHT22;5689;48.798;9.070;2022-07-12T05:14:25;15.70;99.90
11264;DHT22;5689;48.798;9.070;2022-07-12T05:16:53;15.80;99.90
11264;DHT22;5689;48.798;9.070;2022-07-12T05:19:21;15.90;99.90
11264;DHT22;5689;48.798;9.070;2022-07-12T05:21:49;16.20;99.90
11264;DHT22;5689;48.798;9.070;2022-07-12T05:24:18;16.40;99.90
11264;DHT22;5689;48.798;9.070;2022-07-12T05:26:46;16.70;99.90
11264;DHT22;5689;48.798;9.070;2022-07-12T05:29:16;17.00;99.90
11264;DHT22;5689;48.798;9.070;2022-07-12T05:31:44;17.40;99.90
11264;DHT22;5689;48.798;9.070;2022-07-12T05:34:12;17.90;99.90
11264;DHT22;5689;48.798;9.070;2022-07-12T05:36:40;18.50;99.90
11264;DHT22;5689;48.798;9.070;2022-07-12T05:39:09;18.50;99.90
11264;DHT22;5689;48.798;9.070;2022-07-12T05:41:38;19.00;99.90
11264;DHT22;5689;48.798;9.070;2022-07-12T05:44:06;19.50;99.90
11264;DHT22;5689;48.798;9.070;2022-07-12T05:46:34;20.20;99.90
11264;DHT22;5689;48.798;9.070;2022-07-12T05:49:03;20.40;99.90
11264;DHT22;5689;48.798;9.070;2022-07-12T05:51:31;20.40;99.90
11264;DHT22;5689;48.798;9.070;2022-07-12T05:54:17;20.60;99.90
11264;DHT22;5689;48.798;9.070;2022-07-12T05:56:46;20.60;99.90
11264;DHT22;5689;48.798;9.070;2022-07-12T05:59:14;20.90;99.90
11264;DHT22;5689;48.798;9.070;2022-07-12T06:01:42;21.00;99.90
11264;DHT22;5689;48.798;9.070;2022-07-12T06:04:11;21.10;99.90
11264;DHT22;5689;48.798;9.070;2022-07-12T06:06:39;21.20;99.90
11264;DHT22;5689;48.798;9.070;2022-07-12T06:09:07;21.50;99.90
11264;DHT22;5689;48.798;9.070;2022-07-12T06:11:35;21.80;99.90
11264;DHT22;5689;48.798;9.070;2022-07-12T06:14:04;21.70;99.90
11264;DHT22;5689;48.798;9.070;2022-07-12T06:16:32;21.60;99.90
11264;DHT22;5689;48.798;9.070;2022-07-12T06:19:00;21.60;99.90
11264;DHT22;5689;48.798;9.070;2022-07-12T06:21:28;21.50;99.90
11264;DHT22;5689;48.798;9.070;2022-07-12T06:23:56;21.50;99.90
11264;DHT22;5689;48.798;9.070;2022-07-12T06:26:24;21.60;99.90
11264;DHT22;5689;48.798;9.070;2022-07-12T06:28:52;21.60;99.90
11264;DHT22;5689;48.798;9.070;2022-07-12T06:31:21;21.70;99.90
11264;DHT22;5689;48.798;9.070;2022-07-12T06:33:50;22.20;99.90
11264;DHT22;5689;48.798;9.070;2022-07-12T06:36:18;22.80;99.90
11264;DHT22;5689;48.798;9.070;2022-07-12T06:38:46;23.10;99.90
11264;DHT22;5689;48.798;9.070;2022-07-12T06:41:15;23.40;99.90
11264;DHT22;5689;48.798;9.070;2022-07-12T06:43:43;23.90;99.90
11264;DHT22;5689;48.798;9.070;2022-07-12T06:46:12;24.10;99.90
11264;DHT22;5689;48.798;9.070;2022-07-12T06:48:41;23.90;99.90
11264;DHT22;5689;48.798;9.070;2022-07-12T06:51:10;24.50;99.90
11264;DHT22;5689;48.798;9.070;2022-07-12T06:53:38;23.60;99.90
11264;DHT22;5689;48.798;9.070;2022-07-12T06:56:06;23.90;99.90
11264;DHT22;5689;48.798;9.070;2022-07-12T06:58:34;23.50;99.90
11264;DHT22;5689;48.798;9.070;2022-07-12T07:01:02;23.80;99.90
11264;DHT22;5689;48.798;9.070;2022-07-12T07:03:30;23.10;99.90
11264;DHT22;5689;48.798;9.070;2022-07-12T07:06:00;23.20;99.90
11264;DHT22;5689;48.798;9.070;2022-07-12T07:08:28;23.80;99.10
11264;DHT22;5689;48.798;9.070;2022-07-12T07:10:58;24.50;98.70
11264;DHT22;5689;48.798;9.070;2022-07-12T07:13:26;25.70;95.80
11264;DHT22;5689;48.798;9.070;2022-07-12T07:15:53;25.40;96.90
11264;DHT22;5689;48.798;9.070;2022-07-12T07:18:21;25.20;96.80
11264;DHT22;5689;48.798;9.070;2022-07-12T07:20:50;26.40;94.10
11264;DHT22;5689;48.798;9.070;2022-07-12T07:23:19;27.20;92.40
11264;DHT22;5689;48.798;9.070;2022-07-12T07:25:47;27.20;91.80
11264;DHT22;5689;48.798;9.070;2022-07-12T07:28:15;26.30;92.60
11264;DHT22;5689;48.798;9.070;2022-07-12T07:30:44;25.40;93.70
11264;DHT22;5689;48.798;9.070;2022-07-12T07:33:21;25.60;92.90
11264;DHT22;5689;48.798;9.070;2022-07-12T07:35:49;25.60;92.50
11264;DHT22;5689;48.798;9.070;2022-07-12T07:38:19;25.90;92.60
11264;DHT22;5689;48.798;9.070;2022-07-12T07:40:47;26.00;93.40
11264;DHT22;5689;48.798;9.070;2022-07-12T07:43:15;26.50;91.60
11264;DHT22;5689;48.798;9.070;2022-07-12T07:45:43;27.00;90.30
11264;DHT22;5689;48.798;9.070;2022-07-12T07:48:11;28.20;85.20
11264;DHT22;5689;48.798;9.070;2022-07-12T07:50:55;26.20;89.60
11264;DHT22;5689;48.798;9.070;2022-07-12T07:53:25;25.00;91.40
11264;DHT22;5689;48.798;9.070;2022-07-12T07:55:53;26.40;89.20
11264;DHT22;5689;48.798;9.070;2022-07-12T07:58:21;26.30;89.90
11264;DHT22;5689;48.798;9.070;2022-07-12T08:00:49;27.60;85.00
11264;DHT22;5689;48.798;9.070;2022-07-12T08:03:18;28.50;83.30
11264;DHT22;5689;48.798;9.070;2022-07-12T08:05:46;27.30;84.80
11264;DHT22;5689;48.798;9.070;2022-07-12T08:08:15;27.50;83.00
11264;DHT22;5689;48.798;9.070;2022-07-12T08:10:44;27.50;84.80
11264;DHT22;5689;48.798;9.070;2022-07-12T08:13:12;28.20;84.20
11264;DHT22;5689;48.798;9.070;2022-07-12T08:15:40;28.70;82.90
11264;DHT22;5689;48.798;9.070;2022-07-12T08:18:08;28.20;83.50
11264;DHT22;5689;48.798;9.070;2022-07-12T08:20:36;27.60;83.50
11264;DHT22;5689;48.798;9.070;2022-07-12T08:23:12;27.70;83.20
11264;DHT22;5689;48.798;9.070;2022-07-12T08:25:40;27.60;84.50
11264;DHT22;5689;48.798;9.070;2022-07-12T08:28:10;28.30;81.10
11264;DHT22;5689;48.798;9.070;2022-07-12T08:30:38;28.40;82.40
11264;DHT22;5689;48.798;9.070;2022-07-12T08:33:10;27.10;83.80
11264;DHT22;5689;48.798;9.070;2022-07-12T08:35:38;27.40;83.10
11264;DHT22;5689;48.798;9.070;2022-07-12T08:38:06;28.00;81.40
11264;DHT22;5689;48.798;9.070;2022-07-12T08:40:35;29.80;75.10
11264;DHT22;5689;48.798;9.070;2022-07-12T08:43:03;30.40;73.30
11264;DHT22;5689;48.798;9.070;2022-07-12T08:45:32;30.10;75.50
11264;DHT22;5689;48.798;9.070;2022-07-12T08:48:00;27.60;76.90
11264;DHT22;5689;48.798;9.070;2022-07-12T08:50:28;27.70;79.90
11264;DHT22;5689;48.798;9.070;2022-07-12T08:52:56;27.60;77.60
11264;DHT22;5689;48.798;9.070;2022-07-12T08:55:27;28.30;75.90
11264;DHT22;5689;48.798;9.070;2022-07-12T08:57:57;29.30;74.40
11264;DHT22;5689;48.798;9.070;2022-07-12T09:00:26;30.00;70.70
11264;DHT22;5689;48.798;9.070;2022-07-12T09:02:57;28.60;74.00
11264;DHT22;5689;48.798;9.070;2022-07-12T09:05:26;28.40;77.10
11264;DHT22;5689;48.798;9.070;2022-07-12T09:08:02;28.40;77.10
11264;DHT22;5689;48.798;9.070;2022-07-12T09:10:31;28.10;74.00
11264;DHT22;5689;48.798;9.070;2022-07-12T09:12:59;30.60;71.90
11264;DHT22;5689;48.798;9.070;2022-07-12T09:15:28;30.50;70.20
11264;DHT22;5689;48.798;9.070;2022-07-12T09:17:59;29.90;70.70
11264;DHT22;5689;48.798;9.070;2022-07-12T09:20:29;29.50;69.60
11264;DHT22;5689;48.798;9.070;2022-07-12T09:22:59;31.40;67.50
11264;DHT22;5689;48.798;9.070;2022-07-12T09:25:27;30.90;66.50
11264;DHT22;5689;48.798;9.070;2022-07-12T09:27:57;30.20;67.40
11264;DHT22;5689;48.798;9.070;2022-07-12T09:30:26;28.00;71.50
11264;DHT22;5689;48.798;9.070;2022-07-12T09:32:58;26.10;74.60
11264;DHT22;5689;48.798;9.070;2022-07-12T09:35:58;27.00;75.40
11264;DHT22;5689;48.798;9.070;2022-07-12T09:38:37;28.80;71.80
11264;DHT22;5689;48.798;9.070;2022-07-12T09:41:06;29.30;71.00
11264;DHT22;5689;48.798;9.070;2022-07-12T09:43:34;30.80;68.20
11264;DHT22;5689;48.798;9.070;2022-07-12T09:46:02;30.50;66.10
11264;DHT22;5689;48.798;9.070;2022-07-12T09:48:33;29.50;69.50
11264;DHT22;5689;48.798;9.070;2022-07-12T09:51:02;30.20;69.70
11264;DHT22;5689;48.798;9.070;2022-07-12T09:53:32;29.50;69.20
11264;DHT22;5689;48.798;9.070;2022-07-12T09:56:04;29.80;67.20
11264;DHT22;5689;48.798;9.070;2022-07-12T09:58:38;30.10;66.30
11264;DHT22;5689;48.798;9.070;2022-07-12T10:01:07;30.50;67.60
11264;DHT22;5689;48.798;9.070;2022-07-12T10:03:40;29.30;67.30
11264;DHT22;5689;48.798;9.070;2022-07-12T10:06:11;29.20;69.90
11264;DHT22;5689;48.798;9.070;2022-07-12T10:08:40;29.80;69.80
11264;DHT22;5689;48.798;9.070;2022-07-12T10:11:13;31.10;64.90
11264;DHT22;5689;48.798;9.070;2022-07-12T10:13:50;30.70;66.00
11264;DHT22;5689;48.798;9.070;2022-07-12T10:16:25;31.80;64.20
11264;DHT22;5689;48.798;9.070;2022-07-12T10:19:27;30.10;67.50
11264;DHT22;5689;48.798;9.070;2022-07-12T10:21:58;29.80;67.40
11264;DHT22;5689;48.798;9.070;2022-07-12T10:24:48;29.90;64.90
11264;DHT22;5689;48.798;9.070;2022-07-12T10:27:31;31.00;64.10
11264;DHT22;5689;48.798;9.070;2022-07-12T10:30:18;30.60;63.30
11264;DHT22;5689;48.798;9.070;2022-07-12T10:32:47;30.70;63.90
11264;DHT22;5689;48.798;9.070;2022-07-12T10:35:19;31.40;63.50
11264;DHT22;5689;48.798;9.070;2022-07-12T10:38:13;31.30;63.50
11264;DHT22;5689;48.798;9.070;2022-07-12T10:40:42;31.90;62.30
11264;DHT22;5689;48.798;9.070;2022-07-12T10:43:16;29.80;65.80
11264;DHT22;5689;48.798;9.070;2022-07-12T10:45:46;29.90;64.80
11264;DHT22;5689;48.798;9.070;2022-07-12T10:48:22;31.20;62.90
11264;DHT22;5689;48.798;9.070;2022-07-12T10:50:55;32.10;60.90
11264;DHT22;5689;48.798;9.070;2022-07-12T10:53:28;33.70;59.30
11264;DHT22;5689;48.798;9.070;2022-07-12T10:56:09;35.60;56.80
11264;DHT22;5689;48.798;9.070;2022-07-12T10:58:40;35.90;55.20
11264;DHT22;5689;48.798;9.070;2022-07-12T11:01:09;34.80;55.50
11264;DHT22;5689;48.798;9.070;2022-07-12T11:03:39;34.90;55.80
11264;DHT22;5689;48.798;9.070;2022-07-12T11:06:11;32.50;57.50
11264;DHT22;5689;48.798;9.070;2022-07-12T11:08:53;33.20;57.30
11264;DHT22;5689;48.798;9.070;2022-07-12T11:11:23;32.80;58.80
11264;DHT22;5689;48.798;9.070;2022-07-12T11:13:52;34.00;57.20
11264;DHT22;5689;48.798;9.070;2022-07-12T11:16:21;33.70;54.30
11264;DHT22;5689;48.798;9.070;2022-07-12T11:18:50;34.00;55.70
11264;DHT22;5689;48.798;9.070;2022-07-12T11:21:22;33.50;56.30
11264;DHT22;5689;48.798;9.070;2022-07-12T11:23:56;35.70;54.50
11264;DHT22;5689;48.798;9.070;2022-07-12T11:26:25;35.10;53.50
11264;DHT22;5689;48.798;9.070;2022-07-12T11:28:57;33.90;55.40
11264;DHT22;5689;48.798;9.070;2022-07-12T11:31:26;33.40;55.60
11264;DHT22;5689;48.798;9.070;2022-07-12T11:33:54;35.20;53.90
11264;DHT22;5689;48.798;9.070;2022-07-12T11:36:25;36.30;52.90
11264;DHT22;5689;48.798;9.070;2022-07-12T11:38:53;36.60;52.30
11264;DHT22;5689;48.798;9.070;2022-07-12T11:41:22;36.70;51.70
11264;DHT22;5689;48.798;9.070;2022-07-12T11:43:51;34.40;51.50
11264;DHT22;5689;48.798;9.070;2022-07-12T11:46:19;33.80;53.40
11264;DHT22;5689;48.798;9.070;2022-07-12T11:48:47;35.50;52.60
11264;DHT22;5689;48.798;9.070;2022-07-12T11:51:28;36.90;49.50
11264;DHT22;5689;48.798;9.070;2022-07-12T11:53:56;35.80;52.40
11264;DHT22;5689;48.798;9.070;2022-07-12T11:56:29;33.40;56.10
11264;DHT22;5689;48.798;9.070;2022-07-12T11:58:57;34.10;54.60
11264;DHT22;5689;48.798;9.070;2022-07-12T12:01:25;33.60;55.80
11264;DHT22;5689;48.798;9.070;2022-07-12T12:03:53;33.50;55.20
11264;DHT22;5689;48.798;9.070;2022-07-12T12:06:23;32.80;55.90
11264;DHT22;5689;48.798;9.070;2022-07-12T12:08:52;33.70;55.90
11264;DHT22;5689;48.798;9.070;2022-07-12T12:11:26;36.60;50.50
11264;DHT22;5689;48.798;9.070;2022-07-12T12:14:00;34.50;52.00
11264;DHT22;5689;48.798;9.070;2022-07-12T12:16:32;35.70;51.00
11264;DHT22;5689;48.798;9.070;2022-07-12T12:19:01;36.50;49.80
11264;DHT22;5689;48.798;9.070;2022-07-12T12:21:29;37.90;48.20
11264;DHT22;5689;48.798;9.070;2022-07-12T12:24:10;37.00;50.80
11264;DHT22;5689;48.798;9.070;2022-07-12T12:26:38;36.30;51.80
11264;DHT22;5689;48.798;9.070;2022-07-12T12:29:06;38.30;49.00
11264;DHT22;5689;48.798;9.070;2022-07-12T12:31:34;36.90;51.40
11264;DHT22;5689;48.798;9.070;2022-07-12T12:34:09;34.70;53.40
11264;DHT22;5689;48.798;9.070;2022-07-12T12:36:38;34.10;54.00
11264;DHT22;5689;48.798;9.070;2022-07-12T12:39:08;34.40;54.50
11264;DHT22;5689;48.798;9.070;2022-07-12T12:41:41;34.60;52.80
11264;DHT22;5689;48.798;9.070;2022-07-12T12:44:11;34.30;53.80
11264;DHT22;5689;48.798;9.070;2022-07-12T12:47:00;33.80;54.60
11264;DHT22;5689;48.798;9.070;2022-07-12T12:49:45;34.00;54.30
11264;DHT22;5689;48.798;9.070;2022-07-12T12:52:16;34.50;53.70
11264;DHT22;5689;48.798;9.070;2022-07-12T12:54:46;36.20;52.00
11264;DHT22;5689;48.798;9.070;2022-07-12T12:57:14;37.20;51.20
11264;DHT22;5689;48.798;9.070;2022-07-12T12:59:42;37.00;50.10
11264;DHT22;5689;48.798;9.070;2022-07-12T13:02:10;36.10;49.00
11264;DHT22;5689;48.798;9.070;2022-07-12T13:04:39;36.00;50.40
11264;DHT22;5689;48.798;9.070;2022-07-12T13:07:07;37.70;47.40
11264;DHT22;5689;48.798;9.070;2022-07-12T13:09:39;34.30;52.50
11264;DHT22;5689;48.798;9.070;2022-07-12T13:12:17;34.40;53.00
11264;DHT22;5689;48.798;9.070;2022-07-12T13:14:45;33.50;53.80
11264;DHT22;5689;48.798;9.070;2022-07-12T13:17:13;34.60;52.20
11264;DHT22;5689;48.798;9.070;2022-07-12T13:19:41;33.50;52.50
11264;DHT22;5689;48.798;9.070;2022-07-12T13:22:10;34.30;52.80
11264;DHT22;5689;48.798;9.070;2022-07-12T13:24:38;33.70;52.20
11264;DHT22;5689;48.798;9.070;2022-07-12T13:27:06;33.30;53.30
11264;DHT22;5689;48.798;9.070;2022-07-12T13:29:35;35.90;50.40
11264;DHT22;5689;48.798;9.070;2022-07-12T13:32:04;37.40;47.50
11264;DHT22;5689;48.798;9.070;2022-07-12T13:34:32;36.70;49.00
11264;DHT22;5689;48.798;9.070;2022-07-12T13:37:00;36.50;48.80
11264;DHT22;5689;48.798;9.070;2022-07-12T13:39:32;37.80;48.50
11264;DHT22;5689;48.798;9.070;2022-07-12T13:42:17;36.00;50.30
11264;DHT22;5689;48.798;9.070;2022-07-12T13:44:46;37.90;47.40
11264;DHT22;5689;48.798;9.070;2022-07-12T13:47:14;37.10;46.90
11264;DHT22;5689;48.798;9.070;2022-07-12T13:49:42;36.20;48.60
11264;DHT22;5689;48.798;9.070;2022-07-12T13:52:10;38.70;46.80
11264;DHT22;5689;48.798;9.070;2022-07-12T13:54:39;37.00;48.20
11264;DHT22;5689;48.798;9.070;2022-07-12T13:57:06;37.20;48.20
11264;DHT22;5689;48.798;9.070;2022-07-12T13:59:35;35.80;48.00
11264;DHT22;5689;48.798;9.070;2022-07-12T14:02:06;34.40;49.70
11264;DHT22;5689;48.798;9.070;2022-07-12T14:04:35;33.90;52.20
11264;DHT22;5689;48.798;9.070;2022-07-12T14:07:04;33.40;52.20
11264;DHT22;5689;48.798;9.070;2022-07-12T14:09:32;34.10;52.10
11264;DHT22;5689;48.798;9.070;2022-07-12T14:12:00;37.20;46.10
11264;DHT22;5689;48.798;9.070;2022-07-12T14:14:29;36.30;48.40
11264;DHT22;5689;48.798;9.070;2022-07-12T14:17:13;38.50;45.30
11264;DHT22;5689;48.798;9.070;2022-07-12T14:19:41;39.90;43.50
11264;DHT22;5689;48.798;9.070;2022-07-12T14:22:09;37.00;47.20
11264;DHT22;5689;48.798;9.070;2022-07-12T14:24:37;37.80;47.10
11264;DHT22;5689;48.798;9.070;2022-07-12T14:27:07;37.20;48.00
11264;DHT22;5689;48.798;9.070;2022-07-12T14:29:39;34.60;49.70
11264;DHT22;5689;48.798;9.070;2022-07-12T14:32:07;35.30;49.10
11264;DHT22;5689;48.798;9.070;2022-07-12T14:34:36;37.90;46.40
11264;DHT22;5689;48.798;9.070;2022-07-12T14:37:04;36.60;47.20
11264;DHT22;5689;48.798;9.070;2022-07-12T14:39:32;39.30;45.80
11264;DHT22;5689;48.798;9.070;2022-07-12T14:42:00;39.10;44.80
11264;DHT22;5689;48.798;9.070;2022-07-12T14:44:28;39.70;44.40
11264;DHT22;5689;48.798;9.070;2022-07-12T14:46:56;34.40;49.40
11264;DHT22;5689;48.798;9.070;2022-07-12T14:49:25;33.50;50.50
11264;DHT22;5689;48.798;9.070;2022-07-12T14:51:56;33.10;51.40
11264;DHT22;5689;48.798;9.070;2022-07-12T14:54:24;32.80;52.20
11264;DHT22;5689;48.798;9.070;2022-07-12T14:56:52;33.90;50.90
11264;DHT22;5689;48.798;9.070;2022-07-12T14:59:26;36.10;47.80
11264;DHT22;5689;48.798;9.070;2022-07-12T15:01:54;36.30;47.10
11264;DHT22;5689;48.798;9.070;2022-07-12T15:04:22;34.00;50.20
11264;DHT22;5689;48.798;9.070;2022-07-12T15:06:50;32.40;52.40
11264;DHT22;5689;48.798;9.070;2022-07-12T15:09:20;33.20;50.60
11264;DHT22;5689;48.798;9.070;2022-07-12T15:11:48;32.50;51.40
11264;DHT22;5689;48.798;9.070;2022-07-12T15:14:16;31.20;54.80
11264;DHT22;5689;48.798;9.070;2022-07-12T15:16:44;30.70;55.50
11264;DHT22;5689;48.798;9.070;2022-07-12T15:19:12;30.70;55.00
11264;DHT22;5689;48.798;9.070;2022-07-12T15:21:41;30.50;56.00
11264;DHT22;5689;48.798;9.070;2022-07-12T15:24:09;30.90;55.40
11264;DHT22;5689;48.798;9.070;2022-07-12T15:26:39;29.90;55.50
11264;DHT22;5689;48.798;9.070;2022-07-12T15:29:20;29.60;56.80
11264;DHT22;5689;48.798;9.070;2022-07-12T15:31:48;29.30;57.30
11264;DHT22;5689;48.798;9.070;2022-07-12T15:34:16;28.60;57.40
11264;DHT22;5689;48.798;9.070;2022-07-12T15:36:44;28.70;58.00
11264;DHT22;5689;48.798;9.070;2022-07-12T15:39:12;29.20;57.60
11264;DHT22;5689;48.798;9.070;2022-07-12T15:41:41;28.90;57.20
11264;DHT22;5689;48.798;9.070;2022-07-12T15:44:09;29.60;56.80
11264;DHT22;5689;48.798;9.070;2022-07-12T15:46:37;29.50;57.90
11264;DHT22;5689;48.798;9.070;2022-07-12T15:49:05;28.60;59.00
11264;DHT22;5689;48.798;9.070;2022-07-12T15:51:35;28.90;58.70
11264;DHT22;5689;48.798;9.070;2022-07-12T15:54:20;29.70;57.50
11264;DHT22;5689;48.798;9.070;2022-07-12T15:56:50;31.10;55.50
11264;DHT22;5689;48.798;9.070;2022-07-12T15:59:21;31.50;53.10
11264;DHT22;5689;48.798;9.070;2022-07-12T16:01:49;30.10;53.70